16 maja 2022

Czas Kod Pogoda Temp. Widoczność Chmury Wiatr METAR/SPECI
16:25
V
21 °C 10 km+ 12.000 ft 240°   240° 14 kt METAR EBBL 161425Z 24014KT 9999 SCT035 BKN120 21/13 Q1017 BLU BLU
15:55
V
21 °C 10 km+ 12.000 ft 240°   240° 13 kt METAR EBBL 161355Z 24013KT 9999 -SHRA SCT029TCU BKN120 21/14 Q1017 BLU BLU
15:25
V
21 °C 10 km+ 11.000 ft 240°   240° 13 kt METAR EBBL 161325Z 24013KT 9999 FEW026 BKN110 21/14 Q1017 BLU BLU
14:55
V
21 °C 10 km+ 10.000 ft 270°   270° 9 kt METAR EBBL 161255Z 27009KT 9999 SCT026 BKN100 21/14 Q1016 BLU BLU
14:25
V
22 °C 10 km+ 9.000 ft 250°   250° 14 kt METAR EBBL 161225Z 25014KT 9999 SCT028 BKN090 22/14 Q1016 BLU BLU
13:55
V
22 °C 10 km+ - 250°   250° 14 kt METAR EBBL 161155Z 25014KT 9999 SCT031 SCT160 22/14 Q1016 BLU BLU
13:25
V
22 °C 10 km+ - 230°   230° 12 kt METAR EBBL 161125Z 23012KT 9999 SCT036 SCT160 22/15 Q1016 BLU BLU
12:55
V
23 °C 10 km+ 4.000 ft 240°   240° 15 kt METAR EBBL 161055Z 24015KT 9999 BKN040 SCT160 23/15 Q1015 BLU BLU
12:25
V
24 °C 10 km+ 6.000 ft 240°   240° 12 kt METAR EBBL 161025Z 24012KT 9999 BKN060 SCT160 24/14 Q1015 BLU BLU
11:55
V
26 °C 10 km+ - 220°   220° 12 kt METAR EBBL 160955Z 22012KT 9999 SCT025 SCT100 26/14 Q1014 BLU BLU
11:25
V
25 °C 10 km+ - 220°   220° 10 kt METAR EBBL 160925Z 22010KT 9999 SCT025 SCT100 25/14 Q1014 BLU BLU
10:55
V
25 °C 10 km+ - 240°   240° 12 kt METAR EBBL 160855Z 24012KT 9999 SCT120 25/13 Q1014 BLU BLU
10:25
V
25 °C 10 km+ - 230°   230° 14 kt METAR EBBL 160825Z AUTO 23014KT 9999 SCT160/// 25/13 Q1014 BLU
09:55
V
23 °C 10 km+ 12.000 ft 210°   210° 7 kt METAR EBBL 160755Z AUTO 21007KT 9999 BKN120/// 23/12 Q1014 BLU
09:25
V
21 °C 10 km+ 10.000 ft 200°   200° 4 kt METAR EBBL 160725Z AUTO 20004KT 9999 OVC100/// 21/12 Q1014 BLU
08:55
V
20 °C 10 km+ - 220°   220° 6 kt METAR EBBL 160655Z 22006KT 9999 SCT025 SCT080 20/11 Q1013 BLU BLU
08:25
V
20 °C 10 km+ - 220°   220° 6 kt METAR EBBL 160625Z 22006KT 9999 SCT025 SCT080 20/11 Q1013 BLU BLU
07:55
V
18 °C 10 km+ - Var   Var 2 kt METAR EBBL 160555Z VRB02KT 9999 SCT025 SCT080 18/10 Q1013 BLU BLU
07:25
V
17 °C 10 km+ - Var   Var 2 kt METAR EBBL 160525Z VRB02KT 9999 SCT025 SCT100 17/10 Q1013 BLU BLU
06:55
V
16 °C 10 km+ - Var   Var 1 kt METAR EBBL 160455Z VRB01KT 9999 SCT025 SCT100 16/10 Q1012 BLU BLU
06:52
V
16 °C 10 km+ - Var   Var 1 kt METAR EBBL 160452Z VRB01KT 9999 SCT025 SCT100 16/09 Q1012 BLU BLU
06:25
V
15 °C 10 km+ 17.000 ft Var   Var 2 kt METAR EBBL 160425Z AUTO VRB02KT 9999 FEW100/// BKN170/// 15/09 Q1012 BLU
05:55
V
14 °C 10 km+ - Var   Var 1 kt METAR EBBL 160355Z AUTO VRB01KT 9999 FEW088/// 14/09 Q1012 BLU
05:25
V
14 °C 10 km+ - Var   Var 1 kt METAR EBBL 160325Z AUTO VRB01KT 9999 SCT084/// 14/09 Q1012 BLU
04:55
V
15 °C 10 km+ 18.000 ft Var   Var 2 kt METAR EBBL 160255Z AUTO VRB02KT 9999 BKN180/// 15/09 Q1012 BLU
04:25
V
15 °C 10 km+ 18.000 ft Var   Var 2 kt METAR EBBL 160225Z AUTO VRB02KT 9999 BKN180/// 15/09 Q1013 BLU
03:55
V
16 °C 10 km+ - 090°   090° 3 kt METAR EBBL 160155Z AUTO 09003KT 9999 FEW190/// 16/09 Q1013 BLU
03:25
V
15 °C 10 km+ - Var   Var 1 kt METAR EBBL 160125Z AUTO VRB01KT 9999 NCD 15/09 Q1013 BLU
02:55
V
17 °C 10 km+ - Var   Var 2 kt METAR EBBL 160055Z AUTO VRB02KT 9999 NCD 17/09 Q1013 BLU
02:25
V
17 °C 10 km+ - Var   Var 2 kt METAR EBBL 160025Z AUTO VRB02KT 9999 NCD 17/09 Q1013 BLU
01:55
V
18 °C 10 km+ - Var   Var 2 kt METAR EBBL 152355Z AUTO VRB02KT 9999 NCD 18/09 Q1013 BLU
01:25
V
18 °C 10 km+ - Var   Var 2 kt METAR EBBL 152325Z AUTO VRB02KT 9999 SCT180/// 18/09 Q1014 BLU
00:55
V
18 °C 10 km+ 19.000 ft 080°   080° 4 kt METAR EBBL 152255Z AUTO 08004KT 9999 BKN190/// 18/09 Q1014 BLU
00:25
V
19 °C 10 km+ 19.000 ft 080°   080° 4 kt METAR EBBL 152225Z AUTO 08004KT 9999 BKN190/// 19/09 Q1014 BLU

15 maja 2022

Czas Kod Pogoda Temp. Widoczność Chmury Wiatr METAR/SPECI
23:55
V
18 °C 10 km+ 21.000 ft 080°   080° 4 kt METAR EBBL 152155Z AUTO 08004KT 9999 OVC210/// 18/08 Q1014 BLU
23:25
V
18 °C 10 km+ - 080°   080° 4 kt METAR EBBL 152125Z AUTO 08004KT 9999 SCT200/// 18/08 Q1014 BLU
22:55
V
19 °C 10 km+ - 070°   070° 5 kt METAR EBBL 152055Z AUTO 07005KT 9999 FEW210/// 19/08 Q1015 BLU
22:25
V
21 °C 10 km+ - 080°   080° 4 kt METAR EBBL 152025Z AUTO 08004KT 9999 SCT210/// 21/08 Q1014 BLU
21:55
V
22 °C 10 km+ - 080°   080° 4 kt METAR EBBL 151955Z AUTO 08004KT 9999 NCD 22/07 Q1014 BLU
21:25
V
22 °C 10 km+ - 080°   080° 5 kt METAR EBBL 151925Z AUTO 08005KT 9999 NCD 22/07 Q1014 BLU
20:55
V
24 °C 10 km+ - 080°   080° 6 kt METAR EBBL 151855Z AUTO 08006KT 9999 NCD 24/07 Q1014 BLU
20:25
V
24 °C 10 km+ - 090°   090° 7 kt METAR EBBL 151825Z AUTO 09007KT 9999 NCD 24/06 Q1014 BLU
19:55
V
25 °C 10 km+ - 090°   090° 9 kt METAR EBBL 151755Z AUTO 09009KT 9999 NCD 25/06 Q1014 BLU
19:25
V
26 °C 10 km+ - 110°   110° 7 kt METAR EBBL 151725Z AUTO 11007KT 9999 NCD 26/06 Q1014 BLU
18:55
V
26 °C 10 km+ - 100°   100° 9 kt METAR EBBL 151655Z AUTO 10009KT 9999 NCD 26/06 Q1014 BLU
18:25
V
26 °C 10 km+ - 080°   080° 7 kt METAR EBBL 151625Z AUTO 08007KT 9999 NCD 26/07 Q1015 BLU
17:55
V
27 °C 10 km+ - 090°   090° 8 kt METAR EBBL 151555Z AUTO 09008KT 9999 NCD 27/07 Q1015 BLU
17:25
V
26 °C 10 km+ - 080°   080° 10 26 kt METAR EBBL 151525Z AUTO 08010G26KT 9999 NCD 26/06 Q1015 BLU
16:55
V
27 °C 10 km+ - 090°   090° 8 kt METAR EBBL 151455Z AUTO 09008KT 9999 FEW230/// 27/06 Q1016 BLU
16:25
V
26 °C 10 km+ - 080°   080° 7 kt METAR EBBL 151425Z AUTO 08007KT 9999 NCD 26/06 Q1016 BLU
15:55
V
27 °C 10 km+ - 080°   080° 6 kt METAR EBBL 151355Z AUTO 08006KT 9999 NCD 27/07 Q1016 BLU
15:25
V
26 °C 10 km+ - 080°   080° 9 kt METAR EBBL 151325Z AUTO 08009KT 9999 NCD 26/07 Q1017 BLU
14:55
V
27 °C 10 km+ - 080°   080° 8 kt METAR EBBL 151255Z AUTO 08008KT 9999 NCD 27/07 Q1017 BLU
14:25
V
26 °C 10 km+ - 070°   070° 9 kt METAR EBBL 151225Z AUTO 07009KT 9999 NCD 26/08 Q1017 BLU
13:55
V
24 °C 10 km+ - 090°   090° 10 kt METAR EBBL 151155Z AUTO 09010KT 9999 NCD 24/07 Q1017 BLU
13:25
V
25 °C 10 km+ - 080°   080° 7 kt METAR EBBL 151125Z AUTO 08007KT 9999 NCD 25/08 Q1018 BLU
12:55
V
24 °C 10 km+ - 070°   070° 11 kt METAR EBBL 151055Z AUTO 07011KT 9999 NCD 24/08 Q1018 BLU
12:25
V
24 °C 10 km+ - 090°   090° 10 kt METAR EBBL 151025Z AUTO 09010KT 9999 NCD 24/08 Q1018 BLU
11:55
V
23 °C 10 km+ - 090°   090° 8 19 kt METAR EBBL 150955Z AUTO 09008G19KT 9999 NCD 23/08 Q1019 BLU
11:47
M
24 °C 6 km - 090°   090° 8 kt METAR EBBL 150947Z AUTO 09008KT 6000 NCD 24/08 Q1019 WHT
11:25
V
23 °C 10 km+ - 100°   100° 7 kt METAR EBBL 150925Z AUTO 10007KT 9999 NCD 23/08 Q1019 BLU
10:55
V
22 °C 10 km+ - 090°   090° 9 19 kt METAR EBBL 150855Z AUTO 09009G19KT 9999 NCD 22/08 Q1019 BLU
10:25
V
22 °C 10 km+ - 090°   090° 7 kt METAR EBBL 150825Z AUTO 09007KT 9999 NCD 22/09 Q1019 BLU
09:55
V
21 °C 10 km+ - 090°   090° 6 kt METAR EBBL 150755Z AUTO 09006KT 9999 NCD 21/09 Q1019 BLU
09:25
V
19 °C 10 km+ - 100°   100° 4 kt METAR EBBL 150725Z AUTO 10004KT 9999 NCD 19/09 Q1019 BLU
08:55
V
17 °C 10 km+ - 090°   090° 4 kt METAR EBBL 150655Z AUTO 09004KT 9999 NCD 17/09 Q1019 BLU
08:25
V
15 °C 10 km+ - 100°   100° 3 kt METAR EBBL 150625Z AUTO 10003KT 9999 NCD 15/09 Q1019 BLU
07:55
V
14 °C 10 km+ - 070°   070° 4 kt METAR EBBL 150555Z AUTO 07004KT 9999 NCD 14/09 Q1019 BLU
07:25
V
12 °C 10 km+ - 070°   070° 3 kt METAR EBBL 150525Z AUTO 07003KT 9999 NCD 12/08 Q1019 BLU
06:55
V
9 °C 10 km+ - Var   Var 2 kt METAR EBBL 150455Z AUTO VRB02KT 9999 NCD 09/08 Q1019 BLU
06:25
V
8 °C 10 km+ - Var   Var 2 kt METAR EBBL 150425Z AUTO VRB02KT 9999 NCD 08/07 Q1019 BLU
05:55
V
8 °C 10 km+ - Var   Var 1 kt METAR EBBL 150355Z AUTO VRB01KT 9999 NCD 08/07 Q1019 BLU
05:25
V
8 °C 10 km+ - Var   Var 1 kt METAR EBBL 150325Z AUTO VRB01KT 9999 NCD 08/07 Q1019 BLU
04:55
V
9 °C 10 km+ - Var   Var 1 kt METAR EBBL 150255Z AUTO VRB01KT 9999 NCD 09/07 Q1019 BLU
04:25
V
9 °C 10 km+ - Var   Var 1 kt METAR EBBL 150225Z AUTO VRB01KT 9999 NCD 09/08 Q1020 BLU
03:55
V
10 °C 10 km+ - Var   Var 1 kt METAR EBBL 150155Z AUTO VRB01KT 9999 NCD 10/08 Q1020 BLU
03:25
V
10 °C 10 km+ - Var   Var 1 kt METAR EBBL 150125Z AUTO VRB01KT 9999 NCD 10/08 Q1020 BLU
02:55
V
11 °C 10 km+ - Var   Var 1 kt METAR EBBL 150055Z AUTO VRB01KT 9999 NCD 11/08 Q1020 BLU
02:25
V
11 °C 10 km+ - Var   Var 1 kt METAR EBBL 150025Z AUTO VRB01KT 9999 NCD 11/08 Q1020 BLU
01:55
V
11 °C 10 km+ - Var   Var 1 kt METAR EBBL 142355Z AUTO VRB01KT 9999 NCD 11/08 Q1020 BLU
01:25
V
12 °C 10 km+ - Var   Var 2 kt METAR EBBL 142325Z AUTO VRB02KT 9999 NCD 12/08 Q1020 BLU
00:55
V
13 °C 10 km+ - Var   Var 2 kt METAR EBBL 142255Z AUTO VRB02KT 9999 NCD 13/08 Q1020 BLU
00:25
V
13 °C 10 km+ - Var   Var 2 kt METAR EBBL 142225Z AUTO VRB02KT 9999 NCD 13/08 Q1020 BLU

14 maja 2022

Czas Kod Pogoda Temp. Widoczność Chmury Wiatr METAR/SPECI
23:55
V
14 °C 10 km+ - Var   Var 2 kt METAR EBBL 142155Z AUTO VRB02KT 9999 NCD 14/08 Q1020 BLU
23:25
V
15 °C 10 km+ - Var   Var 1 kt METAR EBBL 142125Z AUTO VRB01KT 9999 NCD 15/08 Q1020 BLU
22:55
V
15 °C 10 km+ - Var   Var 2 kt METAR EBBL 142055Z AUTO VRB02KT 9999 NCD 15/09 Q1020 BLU
22:25
V
16 °C 10 km+ - Var   Var 2 kt METAR EBBL 142025Z AUTO VRB02KT 9999 NCD 16/09 Q1020 BLU
21:55
V
17 °C 10 km+ - Var   Var 2 kt METAR EBBL 141955Z AUTO VRB02KT 9999 NCD 17/09 Q1020 BLU
21:25
V
18 °C 10 km+ - 010°   010° 3 kt METAR EBBL 141925Z AUTO 01003KT 9999 NCD 18/08 Q1020 BLU
20:55
V
19 °C 10 km+ - Var   Var 2 kt METAR EBBL 141855Z AUTO VRB02KT 9999 NCD 19/08 Q1020 BLU
20:25
V
20 °C 10 km+ - Var   Var 2 kt METAR EBBL 141825Z AUTO VRB02KT 9999 NCD 20/07 Q1020 BLU
19:55
V
21 °C 10 km+ - 360°   360° 5 kt METAR EBBL 141755Z AUTO 36005KT 9999 NCD 21/07 Q1020 BLU
19:25
V
22 °C 10 km+ - 010°   010° 3 kt METAR EBBL 141725Z AUTO 01003KT 9999 NCD 22/06 Q1020 BLU
18:55
V
22 °C 10 km+ - 050°   050° 3 kt METAR EBBL 141655Z AUTO 05003KT 9999 NCD 22/06 Q1020 BLU
18:25
V
23 °C 10 km+ - Var   Var 2 kt METAR EBBL 141625Z AUTO VRB02KT 9999 NCD 23/05 Q1020 BLU
17:55
V
23 °C 10 km+ - 270°   270° 5 kt METAR EBBL 141555Z AUTO 27005KT 9999 FEW065/// 23/06 Q1020 BLU
17:25
V
24 °C 10 km+ - 350°   350° 4 kt METAR EBBL 141525Z AUTO 35004KT 9999 NCD 24/06 Q1020 BLU
16:55
V
23 °C 10 km+ - 310°   310° 4 kt METAR EBBL 141455Z AUTO 31004KT 9999 NCD 23/07 Q1020 BLU
Starsze dane

Pobierz naszą aplikację

Łatwy dostęp do całej pogody lotniczej na telefonie komórkowym i tablecie.
Z wieloma funkcjami niedostępnymi na stronie internetowej, takimi jak wsparcie offline i osobista lista lotnisk.